createdAt,value
2019-01-04T01:57:46.931Z,27.97
2019-01-04T02:00:14.227Z,34.38
2019-01-04T02:02:41.449Z,29.32
2019-01-04T02:05:08.679Z,27.07
2019-01-04T02:07:35.898Z,31.68
2019-01-04T02:10:03.395Z,27.15
2019-01-04T02:12:30.613Z,27.65
2019-01-04T02:14:57.838Z,28.35
2019-01-04T02:17:25.066Z,28.87
2019-01-04T02:19:52.282Z,28.70
2019-01-04T02:22:19.510Z,25.43
2019-01-04T02:24:46.732Z,28.62
2019-01-04T02:27:13.962Z,22.97
2019-01-04T02:29:41.183Z,23.73
2019-01-04T02:32:08.416Z,24.07
2019-01-04T02:34:36.519Z,23.77
2019-01-04T02:37:03.823Z,42.67
2019-01-04T02:39:31.040Z,22.82
2019-01-04T02:41:58.270Z,36.50
2019-01-04T02:44:25.599Z,21.40
2019-01-04T02:46:52.799Z,36.33
2019-01-04T02:49:20.023Z,30.10
2019-01-04T02:51:47.247Z,28.50
2019-01-04T02:54:14.463Z,25.45
2019-01-04T02:56:41.694Z,21.83
2019-01-04T02:59:08.914Z,22.60
2019-01-04T03:01:36.147Z,19.73
2019-01-04T03:04:03.360Z,35.68
2019-01-04T03:06:30.616Z,27.17
2019-01-04T03:08:57.889Z,26.45
2019-01-04T03:11:25.108Z,20.37
2019-01-04T03:13:52.324Z,31.57
2019-01-04T03:16:19.550Z,23.95
2019-01-04T03:18:46.771Z,27.02
2019-01-04T03:21:14.005Z,25.73
2019-01-04T03:23:41.228Z,29.30
2019-01-04T03:26:08.466Z,33.25
2019-01-04T03:28:35.674Z,22.60
2019-01-04T03:31:02.923Z,32.13
2019-01-04T03:33:30.138Z,27.73
2019-01-04T03:35:57.368Z,26.57
2019-01-04T03:38:24.590Z,32.85
2019-01-04T03:40:51.811Z,27.90
2019-01-04T03:43:19.038Z,27.62
2019-01-04T03:45:46.258Z,27.82
2019-01-04T03:48:13.734Z,26.90
2019-01-04T03:50:40.946Z,23.77
2019-01-04T03:53:08.171Z,29.00
2019-01-04T03:55:35.397Z,30.37
2019-01-04T03:58:02.618Z,22.37
2019-01-04T04:00:29.846Z,34.73
2019-01-04T04:02:57.074Z,29.40
2019-01-04T04:05:24.294Z,33.13
2019-01-04T04:07:51.525Z,29.63
2019-01-04T04:10:18.742Z,28.10
2019-01-04T04:12:45.972Z,29.23
2019-01-04T04:15:13.199Z,34.00
2019-01-04T04:17:40.428Z,25.43
2019-01-04T04:20:07.659Z,38.23
2019-01-04T04:22:34.889Z,33.63
2019-01-04T04:25:02.176Z,31.80
2019-01-04T04:27:29.412Z,25.90
2019-01-04T04:29:56.626Z,30.45
2019-01-04T04:32:23.868Z,29.40
2019-01-04T04:34:51.088Z,33.70
2019-01-04T04:37:18.339Z,35.73
2019-01-04T04:39:45.555Z,38.78
2019-01-04T04:42:12.780Z,32.80
2019-01-04T04:44:40.003Z,37.48
2019-01-04T04:47:07.219Z,27.60
2019-01-04T04:49:34.448Z,35.65
2019-01-04T04:52:01.670Z,32.63
2019-01-04T04:54:28.901Z,30.55
2019-01-04T04:56:56.115Z,32.43
2019-01-04T04:59:23.351Z,31.55
2019-01-04T05:01:50.563Z,36.37
2019-01-04T05:04:17.792Z,34.83
2019-01-04T05:06:45.008Z,31.97
2019-01-04T05:09:12.234Z,42.85
2019-01-04T05:11:39.471Z,31.73
2019-01-04T05:14:06.699Z,33.10
2019-01-04T05:16:33.920Z,35.23
2019-01-04T05:19:01.150Z,42.98
2019-01-04T05:21:28.379Z,35.85
2019-01-04T05:23:55.602Z,29.60
2019-01-04T05:26:22.824Z,30.97
2019-01-04T05:28:50.059Z,35.38
2019-01-04T05:31:17.283Z,28.50
2019-01-04T05:33:44.506Z,35.73
2019-01-04T05:36:11.727Z,38.77
2019-01-04T05:38:38.962Z,32.78
2019-01-04T05:41:06.179Z,33.10
2019-01-04T05:43:33.404Z,46.02
2019-01-04T05:46:00.626Z,25.00
2019-01-04T05:48:27.844Z,28.57
2019-01-04T05:50:55.079Z,38.10
2019-01-04T05:53:22.302Z,32.93
2019-01-04T05:55:49.608Z,35.37
2019-01-04T05:58:16.829Z,24.63
2019-01-04T06:00:44.059Z,39.67
2019-01-04T06:03:11.289Z,30.00
2019-01-04T06:05:38.518Z,30.05
2019-01-04T06:08:05.738Z,31.02
2019-01-04T06:10:32.967Z,37.37
2019-01-04T06:13:00.195Z,40.05
2019-01-04T06:15:27.427Z,32.08
2019-01-04T06:17:54.655Z,31.85
2019-01-04T06:20:21.879Z,39.65
2019-01-04T06:22:49.099Z,28.12
2019-01-04T06:25:16.331Z,42.20
2019-01-04T06:27:44.215Z,30.75
2019-01-04T06:30:11.454Z,26.97
2019-01-04T06:32:38.670Z,31.52
2019-01-04T06:35:05.903Z,50.63
2019-01-04T06:37:33.127Z,33.25
2019-01-04T06:40:00.385Z,26.37
2019-01-04T06:42:27.601Z,23.10
2019-01-04T06:44:54.818Z,30.75
2019-01-04T06:47:22.043Z,34.30
2019-01-04T06:49:49.279Z,40.70
2019-01-04T06:52:16.506Z,25.72
2019-01-04T06:55:02.040Z,25.72
2019-01-04T06:57:29.271Z,38.13
2019-01-04T06:59:56.491Z,31.48
2019-01-04T07:02:23.717Z,29.32
2019-01-04T07:04:50.939Z,28.07
2019-01-04T07:07:18.195Z,32.30
2019-01-04T07:09:45.410Z,33.98
2019-01-04T07:12:12.645Z,36.68
2019-01-04T07:14:39.860Z,36.00
2019-01-04T07:17:07.087Z,24.97
2019-01-04T07:19:34.308Z,29.18
2019-01-04T07:22:01.539Z,35.73
2019-01-04T07:24:28.758Z,35.52
2019-01-04T07:26:55.999Z,21.90
2019-01-04T07:29:24.850Z,27.07
2019-01-04T07:31:52.092Z,31.00
2019-01-04T07:34:19.306Z,38.42
2019-01-04T07:36:46.545Z,24.72
2019-01-04T07:39:13.779Z,47.90
2019-01-04T07:41:41.011Z,38.03
2019-01-04T07:44:08.235Z,25.77
2019-01-04T07:46:35.467Z,27.02
2019-01-04T07:49:02.691Z,24.47
2019-01-04T07:51:29.933Z,48.25
2019-01-04T07:53:57.150Z,30.02
2019-01-04T07:56:24.376Z,29.15
2019-01-04T07:58:51.591Z,31.02
2019-01-04T08:01:18.855Z,28.40
2019-01-04T08:03:46.071Z,35.88
2019-01-04T08:06:13.315Z,24.23
2019-01-04T08:08:40.534Z,23.70
2019-01-04T08:11:07.774Z,22.37
2019-01-04T08:13:35.012Z,21.68
2019-01-04T08:16:02.234Z,22.35
2019-01-04T08:18:29.459Z,26.37
2019-01-04T08:20:56.680Z,24.03
2019-01-04T08:23:23.912Z,26.23
2019-01-04T08:25:51.139Z,36.57
2019-01-04T08:28:18.375Z,23.87
2019-01-04T08:30:45.599Z,29.87
2019-01-04T08:33:12.826Z,27.77
2019-01-04T08:35:40.058Z,44.60
2019-01-04T08:38:07.283Z,36.88
2019-01-04T08:40:34.549Z,27.32
2019-01-04T08:43:01.818Z,24.23
2019-01-04T08:45:29.039Z,28.03
2019-01-04T08:47:56.270Z,25.08
2019-01-04T08:50:26.439Z,38.60
2019-01-04T08:52:53.667Z,30.08
2019-01-04T08:55:20.962Z,42.05
2019-01-04T08:57:48.187Z,32.58
2019-01-04T09:00:15.411Z,41.20
2019-01-04T09:02:42.641Z,26.23
2019-01-04T09:05:09.863Z,28.95
2019-01-04T09:07:37.090Z,35.08
2019-01-04T09:10:05.079Z,36.70
2019-01-04T09:12:32.313Z,33.38
2019-01-04T09:14:59.522Z,41.98
2019-01-04T09:17:26.751Z,30.20
2019-01-04T09:19:53.978Z,33.85
2019-01-04T09:22:21.207Z,41.13
2019-01-04T09:24:48.427Z,27.52
2019-01-04T09:27:15.662Z,29.15
2019-01-04T09:29:42.881Z,33.20
2019-01-04T09:32:10.105Z,28.83
2019-01-04T09:34:37.326Z,37.80
2019-01-04T09:37:04.556Z,30.10
2019-01-04T09:39:31.790Z,35.03
2019-01-04T09:41:59.666Z,36.17
2019-01-04T09:44:26.899Z,40.58
2019-01-04T09:46:54.120Z,32.08
2019-01-04T09:49:21.343Z,29.60
2019-01-04T09:51:48.563Z,29.02
2019-01-04T09:54:15.786Z,30.85
2019-01-04T09:56:43.014Z,25.55
2019-01-04T09:59:10.252Z,37.45
2019-01-04T10:01:37.471Z,24.23
2019-01-04T10:04:04.699Z,23.67
2019-01-04T10:06:31.919Z,27.58
2019-01-04T10:08:59.151Z,37.65
2019-01-04T10:11:26.366Z,20.72
2019-01-04T10:13:53.598Z,25.20
2019-01-04T10:16:20.806Z,20.88
2019-01-04T10:18:48.034Z,22.20
2019-01-04T10:21:15.249Z,22.77
2019-01-04T10:23:42.475Z,17.45
2019-01-04T10:26:09.691Z,14.60
2019-01-04T10:28:36.919Z,21.17
2019-01-04T10:31:04.134Z,16.48
2019-01-04T10:33:31.355Z,21.97
2019-01-04T10:35:58.566Z,17.12
2019-01-04T10:38:25.796Z,23.67
2019-01-04T10:40:53.017Z,19.67
2019-01-04T10:43:20.238Z,14.38
2019-01-04T10:45:47.477Z,17.27
2019-01-04T10:48:14.697Z,16.48
2019-01-04T10:50:41.915Z,16.15
2019-01-04T10:53:09.131Z,17.77
2019-01-04T10:55:36.359Z,26.48
2019-01-04T10:58:03.590Z,29.32
2019-01-04T11:00:30.818Z,21.82
2019-01-04T11:02:58.035Z,25.23
2019-01-04T11:05:25.260Z,22.25
2019-01-04T11:07:52.472Z,21.52
2019-01-04T11:10:19.710Z,25.60
2019-01-04T11:12:46.937Z,19.67
2019-01-04T11:15:14.189Z,21.48
2019-01-04T11:17:41.410Z,24.07
2019-01-04T11:20:10.179Z,33.55
2019-01-04T11:22:54.223Z,30.85
2019-01-04T11:25:35.015Z,24.67
2019-01-04T11:28:09.647Z,16.97
2019-01-04T11:30:38.414Z,23.57
2019-01-04T11:33:06.003Z,21.42
2019-01-04T11:35:37.778Z,19.20
2019-01-04T11:38:09.424Z,19.90
2019-01-04T11:40:49.971Z,18.67
2019-01-04T11:43:27.859Z,19.45
2019-01-04T11:46:02.606Z,32.35
2019-01-04T11:48:31.367Z,20.45
2019-01-04T11:51:16.906Z,26.27
2019-01-04T11:53:44.117Z,27.20
2019-01-04T11:56:11.415Z,24.57
2019-01-04T11:58:38.630Z,26.50
2019-01-04T12:01:05.864Z,22.52
2019-01-04T12:03:33.086Z,27.58
2019-01-04T12:06:00.310Z,22.17
2019-01-04T12:08:27.532Z,26.45
2019-01-04T12:10:54.751Z,25.85
2019-01-04T12:13:21.975Z,19.10
2019-01-04T12:15:49.226Z,26.07
2019-01-04T12:18:16.438Z,19.73
2019-01-04T12:20:45.546Z,26.37
2019-01-04T12:23:12.631Z,24.10
2019-01-04T12:25:39.867Z,19.82
2019-01-04T12:28:07.085Z,14.75
2019-01-04T12:30:34.308Z,16.97
2019-01-04T12:33:01.523Z,20.12
2019-01-04T12:35:28.750Z,22.73
2019-01-04T12:37:55.992Z,18.00
2019-01-04T12:40:23.202Z,15.65
2019-01-04T12:42:50.442Z,19.27
2019-01-04T12:45:17.655Z,16.67
2019-01-04T12:47:44.885Z,18.07
2019-01-04T12:50:12.135Z,21.73
2019-01-04T12:52:41.916Z,19.50
2019-01-04T12:55:09.129Z,17.50
2019-01-04T12:57:36.357Z,16.80
2019-01-04T13:00:04.747Z,19.07
2019-01-04T13:02:31.968Z,18.07
2019-01-04T13:04:59.186Z,10.72
2019-01-04T13:07:26.464Z,14.40
2019-01-04T13:09:53.704Z,21.50
2019-01-04T13:12:20.950Z,17.60
2019-01-04T13:14:48.166Z,15.72
2019-01-04T13:17:15.390Z,22.87
2019-01-04T13:19:42.612Z,15.20
2019-01-04T13:22:09.853Z,16.62
2019-01-04T13:24:37.065Z,22.70
2019-01-04T13:27:04.282Z,24.57
2019-01-04T13:29:34.612Z,15.58
2019-01-04T13:32:01.809Z,17.37
2019-01-04T13:34:29.026Z,17.90
2019-01-04T13:36:56.263Z,24.20
2019-01-04T13:39:23.478Z,14.07
2019-01-04T13:41:50.715Z,14.95
2019-01-04T13:44:17.929Z,20.92
2019-01-04T13:46:45.168Z,19.67
2019-01-04T13:49:12.358Z,11.85
2019-01-04T13:51:39.605Z,16.73
2019-01-04T13:54:06.819Z,18.50
2019-01-04T13:56:34.036Z,16.80
2019-01-04T13:59:01.264Z,18.42
2019-01-04T14:01:28.501Z,16.90
2019-01-04T14:03:55.716Z,16.73
2019-01-04T14:06:22.938Z,14.47
2019-01-04T14:08:50.154Z,23.02
2019-01-04T14:11:17.378Z,20.88
2019-01-04T14:13:44.603Z,20.80
2019-01-04T14:16:11.895Z,18.48
2019-01-04T14:18:39.124Z,19.32
2019-01-04T14:21:06.350Z,13.08
2019-01-04T14:23:33.570Z,13.83
2019-01-04T14:26:00.807Z,14.13
2019-01-04T14:28:28.031Z,14.80
2019-01-04T14:30:56.498Z,20.02
2019-01-04T14:33:23.991Z,14.87
2019-01-04T14:35:51.248Z,22.00
2019-01-04T14:38:18.463Z,18.60
2019-01-04T14:40:45.718Z,27.48
2019-01-04T14:43:12.944Z,14.87
2019-01-04T14:45:40.158Z,15.85
2019-01-04T14:48:07.398Z,15.20
2019-01-04T14:50:34.620Z,15.40
2019-01-04T14:53:01.843Z,16.07
2019-01-04T14:55:29.099Z,19.85
2019-01-04T14:57:56.315Z,20.05
2019-01-04T15:00:23.534Z,15.48
2019-01-04T15:02:50.746Z,14.58
2019-01-04T15:05:17.962Z,18.10
2019-01-04T15:07:45.184Z,23.57
2019-01-04T15:10:12.411Z,13.58
2019-01-04T15:12:39.639Z,15.05
2019-01-04T15:15:07.022Z,26.80
2019-01-04T15:17:34.242Z,18.75
2019-01-04T15:20:01.482Z,27.52
2019-01-04T15:22:28.702Z,14.38
2019-01-04T15:24:55.918Z,15.75
2019-01-04T15:27:23.137Z,18.40
2019-01-04T15:29:50.350Z,18.23
2019-01-04T15:32:17.571Z,32.60
2019-01-04T15:34:44.786Z,17.42
2019-01-04T15:37:12.001Z,20.82
2019-01-04T15:39:39.226Z,27.02
2019-01-04T15:42:06.438Z,13.78
2019-01-04T15:44:33.662Z,17.90
2019-01-04T15:47:00.875Z,18.87
2019-01-04T15:49:28.103Z,20.80
2019-01-04T15:51:55.319Z,24.15
2019-01-04T15:54:22.542Z,25.30
2019-01-04T15:56:49.763Z,29.02
2019-01-04T15:59:16.995Z,18.25
2019-01-04T16:01:44.215Z,13.80
2019-01-04T16:04:11.435Z,13.40
2019-01-04T16:06:38.673Z,17.90
2019-01-04T16:09:06.146Z,19.42
2019-01-04T16:11:33.715Z,16.25
2019-01-04T16:14:00.925Z,18.67
2019-01-04T16:16:28.164Z,13.58
2019-01-04T16:18:55.385Z,15.65
2019-01-04T16:21:22.607Z,18.67
2019-01-04T16:23:49.827Z,16.50
2019-01-04T16:26:17.055Z,14.40
2019-01-04T16:28:44.270Z,14.38
2019-01-04T16:31:11.499Z,19.55
2019-01-04T16:33:38.710Z,17.20
2019-01-04T16:36:05.943Z,26.65
2019-01-04T16:38:33.172Z,16.55
2019-01-04T16:41:00.398Z,17.90
2019-01-04T16:43:27.623Z,21.80
2019-01-04T16:45:54.850Z,20.20
2019-01-04T16:48:22.440Z,17.27
2019-01-04T16:50:49.702Z,17.90
2019-01-04T16:53:16.914Z,24.37
2019-01-04T16:55:44.147Z,19.92
2019-01-04T16:58:11.391Z,15.75
2019-01-04T17:00:38.603Z,13.70
2019-01-04T17:03:05.821Z,20.20
2019-01-04T17:05:33.038Z,19.90
2019-01-04T17:08:00.255Z,16.57
2019-01-04T17:10:27.494Z,19.55
2019-01-04T17:12:54.719Z,20.08
2019-01-04T17:15:21.944Z,16.55
2019-01-04T17:17:49.221Z,22.27
2019-01-04T17:20:16.463Z,16.23
2019-01-04T17:22:43.679Z,8.88
2019-01-04T17:25:10.912Z,12.43
2019-01-04T17:27:39.796Z,15.35
2019-01-04T17:30:08.394Z,12.30
2019-01-04T17:32:35.606Z,13.13
2019-01-04T17:35:02.827Z,16.60
2019-01-04T17:37:30.054Z,12.80
2019-01-04T17:39:57.276Z,21.17
2019-01-04T17:42:24.530Z,14.85
2019-01-04T17:44:51.790Z,16.27
2019-01-04T17:47:19.015Z,11.18
2019-01-04T17:49:46.352Z,30.55
2019-01-04T17:52:19.606Z,18.02
2019-01-04T17:54:46.794Z,14.60
2019-01-04T17:57:14.020Z,12.25
2019-01-04T17:59:41.230Z,12.30
2019-01-04T18:02:08.748Z,13.65
2019-01-04T18:04:35.964Z,14.33
2019-01-04T18:07:03.194Z,16.75
2019-01-04T18:09:34.625Z,14.65
2019-01-04T18:12:01.847Z,13.85
2019-01-04T18:14:29.066Z,14.38
2019-01-04T18:16:56.282Z,12.63
2019-01-04T18:19:23.575Z,16.05
2019-01-04T18:21:50.791Z,16.30
2019-01-04T18:24:18.015Z,13.43
2019-01-04T18:26:45.251Z,12.63
2019-01-04T18:29:12.485Z,18.70
2019-01-04T18:31:39.703Z,19.37
2019-01-04T18:34:06.930Z,13.62
2019-01-04T18:36:34.162Z,29.52
2019-01-04T18:39:01.384Z,14.53
2019-01-04T18:41:28.613Z,11.63
2019-01-04T18:43:55.827Z,14.90
2019-01-04T18:46:23.054Z,16.60
2019-01-04T18:48:50.273Z,17.87
2019-01-04T18:51:17.487Z,15.45
2019-01-04T18:53:44.710Z,19.23
2019-01-04T18:56:11.927Z,25.90
2019-01-04T18:58:39.155Z,18.98
2019-01-04T19:01:06.366Z,19.73
2019-01-04T19:03:33.607Z,15.20
2019-01-04T19:06:00.818Z,22.05
2019-01-04T19:08:28.043Z,21.65
2019-01-04T19:10:55.270Z,15.25
2019-01-04T19:13:26.754Z,28.60
2019-01-04T19:15:52.302Z,19.40
2019-01-04T19:18:19.531Z,20.97
2019-01-04T19:20:46.755Z,18.32
2019-01-04T19:23:13.989Z,21.87
2019-01-04T19:25:41.200Z,22.40
2019-01-04T19:28:08.423Z,23.60
2019-01-04T19:30:35.639Z,20.70
2019-01-04T19:33:02.870Z,18.15
2019-01-04T19:35:30.095Z,28.20
2019-01-04T19:37:57.322Z,19.57
2019-01-04T19:40:24.550Z,19.87
2019-01-04T19:42:51.775Z,23.57
2019-01-04T19:45:18.986Z,22.27
2019-01-04T19:47:46.218Z,22.58
2019-01-04T19:50:15.308Z,19.42
2019-01-04T19:52:42.526Z,20.70
2019-01-04T19:55:09.740Z,17.87
2019-01-04T19:57:36.970Z,21.97
2019-01-04T20:00:05.556Z,23.32
2019-01-04T20:02:32.780Z,23.77
2019-01-04T20:05:00.002Z,22.25
2019-01-04T20:08:02.205Z,18.20
2019-01-04T20:11:01.363Z,17.90
2019-01-04T20:13:34.494Z,17.50
2019-01-04T20:16:13.618Z,23.65
2019-01-04T20:18:45.156Z,17.73
2019-01-04T20:21:16.702Z,18.98
2019-01-04T20:23:45.566Z,16.52
2019-01-04T20:26:17.367Z,19.60
2019-01-04T20:29:04.292Z,26.77
2019-01-04T20:31:49.367Z,16.52
2019-01-04T20:34:20.933Z,15.15
2019-01-04T20:36:52.479Z,12.10
2019-01-04T20:39:24.101Z,16.07
2019-01-04T20:42:08.203Z,16.30
2019-01-04T20:44:53.383Z,12.68
2019-01-04T20:47:38.391Z,16.65
2019-01-04T20:50:12.971Z,14.65
2019-01-04T20:52:58.200Z,13.03
2019-01-04T20:55:40.150Z,24.47
2019-01-04T20:58:25.862Z,21.02
2019-01-04T21:00:54.725Z,20.05
2019-01-04T21:03:23.634Z,19.00
2019-01-04T21:05:58.282Z,26.60
2019-01-04T21:08:39.097Z,19.82
2019-01-04T21:11:13.395Z,39.80
2019-01-04T21:13:45.395Z,20.57
2019-01-04T21:16:23.399Z,23.85
2019-01-04T21:18:55.278Z,18.75
2019-01-04T21:21:26.816Z,28.87
2019-01-04T21:24:11.982Z,21.05
2019-01-04T21:26:40.838Z,21.68
2019-01-04T21:29:18.718Z,29.80
2019-01-04T21:32:03.918Z,26.87
2019-01-04T21:34:38.491Z,31.20
2019-01-04T21:37:10.555Z,26.10
2019-01-04T21:39:39.559Z,21.85
2019-01-04T21:42:24.711Z,26.07
2019-01-04T21:45:08.412Z,21.70
2019-01-04T21:47:46.240Z,22.93
2019-01-04T21:50:15.110Z,22.60
2019-01-04T21:52:50.060Z,27.67
2019-01-04T21:55:18.927Z,26.55
2019-01-04T21:58:03.996Z,21.73
2019-01-04T22:00:42.082Z,22.67
2019-01-04T22:03:16.800Z,31.12
2019-01-04T22:05:48.476Z,28.30
2019-01-04T22:08:23.271Z,18.02
2019-01-04T22:11:08.436Z,20.23
2019-01-04T22:13:48.998Z,24.00
2019-01-04T22:16:26.607Z,18.57
2019-01-04T22:18:55.466Z,18.70
2019-01-04T22:21:40.628Z,23.32
2019-01-04T22:24:09.483Z,18.80
2019-01-04T22:26:41.263Z,19.05
2019-01-04T22:29:16.311Z,23.62
2019-01-04T22:31:50.983Z,19.50
2019-01-04T22:34:34.640Z,17.32
2019-01-04T22:37:18.487Z,18.07
2019-01-04T22:40:05.321Z,22.32
2019-01-04T22:42:50.614Z,21.23
2019-01-04T22:45:19.479Z,23.87
2019-01-04T22:47:48.340Z,20.10
2019-01-04T22:50:26.359Z,17.98
2019-01-04T22:52:55.226Z,17.23
2019-01-04T22:55:24.087Z,19.70
2019-01-04T22:57:58.681Z,25.40
2019-01-04T23:00:31.202Z,18.57
2019-01-04T23:03:18.343Z,17.42
2019-01-04T23:05:47.206Z,21.33
2019-01-04T23:08:34.229Z,22.13
2019-01-04T23:11:11.962Z,17.12
2019-01-04T23:13:46.813Z,17.42
2019-01-04T23:16:15.674Z,21.65
2019-01-04T23:18:50.546Z,23.42
2019-01-04T23:21:37.838Z,14.58
2019-01-04T23:24:06.702Z,17.00
2019-01-04T23:26:47.421Z,18.98
2019-01-04T23:29:27.806Z,19.75
2019-01-04T23:31:56.671Z,16.30
2019-01-04T23:34:31.889Z,19.40
2019-01-04T23:37:00.759Z,15.98
2019-01-04T23:39:41.601Z,19.05
2019-01-04T23:42:19.195Z,18.62
2019-01-04T23:44:48.315Z,17.87
2019-01-04T23:47:32.362Z,22.02
2019-01-04T23:50:12.940Z,18.27
2019-01-04T23:52:41.821Z,15.80
2019-01-04T23:55:25.647Z,15.35
2019-01-04T23:57:57.222Z,17.45
